Time;durP1;ratioP1;P1;durP2;ratioP2;P2;SDS_P1;SDS_P2;PMS_P1;PMS_P2;Temp;Humidity;BMP_temperature;BMP_pressure;BME280_temperature;BME280_humidity;BME280_pressure;Samples;Min_cycle;Max_cycle;Signal;HPM_P1;HPM_P2
2023/11/27 00:02:19;;;;;;;;;;;;;;;;;;4983489;28;20559;-72
2023/11/27 00:04:45;;;;;;;;;;;;;;;;;;4980299;28;19917;-72
2023/11/27 00:07:11;;;;;;;;;;;;;;;;;;4980911;28;19925;-72
2023/11/27 00:09:37;;;;;;;;;;;;;;;;;;4983252;28;19917;-72
2023/11/27 00:12:03;;;;;;;;;;;;;;;;;;4983136;28;20408;-73
2023/11/27 00:14:29;;;;;;;;;;;;;;;;;;4984085;28;20363;-72
2023/11/27 00:16:55;;;;;;;;;;;;;;;;;;4983264;28;21901;-72
2023/11/27 00:19:21;;;;;;;;;;;;;;;;;;4987449;28;19917;-72
2023/11/27 00:21:47;;;;;;;;;;;;;;;;;;4978239;28;20716;-72
2023/11/27 00:24:13;;;;;;;;;;;;;;;;;;4984015;28;19918;-72
2023/11/27 00:26:39;;;;;;;;;;;;;;;;;;4983545;28;19921;-72
2023/11/27 00:29:05;;;;;;;;;;;;;;;;;;4984036;28;19925;-72
2023/11/27 00:31:32;;;;;;;;;;;;;;;;;;4984508;28;19936;-73
2023/11/27 00:33:58;;;;;;;;;;;;;;;;;;4983940;28;20319;-72
2023/11/27 00:36:23;;;;;;;;;;;;;;;;;;4979029;28;19917;-72
2023/11/27 00:38:49;;;;;;;;;;;;;;;;;;4981091;28;20017;-72
2023/11/27 00:41:16;;;;;;;;;;;;;;;;;;4982212;28;19925;-72
2023/11/27 00:43:42;;;;;;;;;;;;;;;;;;4982598;28;22578;-72
2023/11/27 00:46:08;;;;;;;;;;;;;;;;;;4983994;28;20307;-72
2023/11/27 00:48:34;;;;;;;;;;;;;;;;;;4981751;28;19917;-72
2023/11/27 00:51:00;;;;;;;;;;;;;;;;;;4980250;28;19918;-72
2023/11/27 00:53:26;;;;;;;;;;;;;;;;;;4984118;28;20573;-72
2023/11/27 00:55:52;;;;;;;;;;;;;;;;;;4980902;28;20510;-72
2023/11/27 00:58:18;;;;;;;;;;;;;;;;;;4985743;28;19917;-72
2023/11/27 01:00:44;;;;;;;;;;;;;;;;;;4981764;28;19918;-72
2023/11/27 01:03:10;;;;;;;;;;;;;;;;;;4981313;28;20509;-72
2023/11/27 01:05:37;;;;;;;;;;;;;;;;;;4980734;28;20063;-71
2023/11/27 01:08:04;;;;;;;;;;;;;;;;;;4980320;28;19956;-71
2023/11/27 01:10:31;;;;;;;;;;;;;;;;;;4980294;28;19917;-72
2023/11/27 01:12:57;;;;;;;;;;;;;;;;;;4978532;28;20894;-74
2023/11/27 01:15:23;;;;;;;;;;;;;;;;;;4982461;28;20395;-72
2023/11/27 01:17:49;;;;;;;;;;;;;;;;;;4979391;28;20439;-73
2023/11/27 01:20:15;;;;;;;;;;;;;;;;;;4981999;28;19925;-72
2023/11/27 01:22:40;;;;;;;;;;;;;;;;;;4979367;28;19917;-73
2023/11/27 01:25:06;;;;;;;;;;;;;;;;;;4982971;28;19992;-73
2023/11/27 01:27:32;;;;;;;;;;;;;;;;;;4981226;28;19932;-71
2023/11/27 01:29:58;;;;;;;;;;;;;;;;;;4980538;28;20434;-71
2023/11/27 01:32:25;;;;;;;;;;;;;;;;;;4980604;28;20044;-72
2023/11/27 01:34:51;;;;;;;;;;;;;;;;;;4974352;28;19961;-72
2023/11/27 01:37:17;;;;;;;;;;;;;;;;;;4978219;28;20012;-73
2023/11/27 01:39:43;;;;;;;;;;;;;;;;;;4976837;28;19965;-73
2023/11/27 01:42:09;;;;;;;;;;;;;;;;;;4982298;28;20119;-73
2023/11/27 01:44:35;;;;;;;;;;;;;;;;;;4978710;28;20011;-73
2023/11/27 01:47:01;;;;;;;;;;;;;;;;;;4978080;28;19964;-73
2023/11/27 01:49:27;;;;;;;;;;;;;;;;;;4984493;28;19918;-74
2023/11/27 01:51:53;;;;;;;;;;;;;;;;;;4979194;28;19925;-73
2023/11/27 01:54:19;;;;;;;;;;;;;;;;;;4982218;28;19921;-74
2023/11/27 01:56:46;;;;;;;;;;;;;;;;;;4975594;28;20035;-74
2023/11/27 01:59:12;;;;;;;;;;;;;;;;;;4976295;28;19925;-73
2023/11/27 02:01:38;;;;;;;;;;;;;;;;;;4977760;28;19957;-72
2023/11/27 02:04:04;;;;;;;;;;;;;;;;;;4980898;28;20130;-73
2023/11/27 02:06:30;;;;;;;;;;;;;;;;;;4977312;28;20437;-73
2023/11/27 02:08:56;;;;;;;;;;;;;;;;;;4978968;28;20135;-72
2023/11/27 02:11:22;;;;;;;;;;;;;;;;;;4980490;28;20506;-72
2023/11/27 02:13:47;;;;;;;;;;;;;;;;;;4977961;28;20036;-72
2023/11/27 02:16:14;;;;;;;;;;;;;;;;;;4979708;28;19918;-72
2023/11/27 02:18:39;;;;;;;;;;;;;;;;;;4976583;28;19971;-72
2023/11/27 02:21:05;;;;;;;;;;;;;;;;;;4982984;28;20020;-72
2023/11/27 02:23:31;;;;;;;;;;;;;;;;;;4980011;28;19972;-72
2023/11/27 02:25:57;;;;;;;;;;;;;;;;;;4978573;28;19929;-72
2023/11/27 02:28:23;;;;;;;;;;;;;;;;;;4984460;28;19913;-71
2023/11/27 02:30:49;;;;;;;;;;;;;;;;;;4979242;28;19925;-72
2023/11/27 02:33:16;;;;;;;;;;;;;;;;;;4984247;28;19917;-73
2023/11/27 02:35:42;;;;;;;;;;;;;;;;;;4981093;28;20331;-72
2023/11/27 02:38:08;;;;;;;;;;;;;;;;;;4983260;28;19917;-72
2023/11/27 02:40:34;;;;;;;;;;;;;;;;;;4987772;28;20384;-73
2023/11/27 02:43:00;;;;;;;;;;;;;;;;;;4982097;28;19960;-72
2023/11/27 02:45:26;;;;;;;;;;;;;;;;;;4986436;28;20012;-74
2023/11/27 02:47:52;;;;;;;;;;;;;;;;;;4976185;28;20545;-73
2023/11/27 02:50:21;;;;;;;;;;;;;;;;;;4984407;28;19922;-72
2023/11/27 02:52:47;;;;;;;;;;;;;;;;;;4978506;28;20676;-72
2023/11/27 02:55:13;;;;;;;;;;;;;;;;;;4985293;28;19921;-72
2023/11/27 02:57:39;;;;;;;;;;;;;;;;;;4975590;28;19922;-72
2023/11/27 03:00:05;;;;;;;;;;;;;;;;;;4981404;28;19918;-72
2023/11/27 03:02:32;;;;;;;;;;;;;;;;;;4982133;28;19926;-74
2023/11/27 03:04:58;;;;;;;;;;;;;;;;;;4976207;28;19925;-72
2023/11/27 03:07:24;;;;;;;;;;;;;;;;;;4981543;28;19918;-73
2023/11/27 03:09:50;;;;;;;;;;;;;;;;;;4978228;28;19914;-73
2023/11/27 03:12:16;;;;;;;;;;;;;;;;;;4982076;28;19960;-73
2023/11/27 03:14:42;;;;;;;;;;;;;;;;;;4976369;28;20629;-74
2023/11/27 03:17:08;;;;;;;;;;;;;;;;;;4977506;28;20096;-74
2023/11/27 03:19:34;;;;;;;;;;;;;;;;;;4978143;28;20446;-73
2023/11/27 03:22:00;;;;;;;;;;;;;;;;;;4977641;28;20018;-74
2023/11/27 03:24:25;;;;;;;;;;;;;;;;;;4980405;28;19921;-73
2023/11/27 03:26:51;;;;;;;;;;;;;;;;;;4974775;28;19924;-72
2023/11/27 03:29:17;;;;;;;;;;;;;;;;;;4983612;28;19917;-72
2023/11/27 03:31:43;;;;;;;;;;;;;;;;;;4978908;28;19921;-73
2023/11/27 03:34:09;;;;;;;;;;;;;;;;;;4985210;28;19929;-74
2023/11/27 03:36:35;;;;;;;;;;;;;;;;;;4979969;28;19970;-72
2023/11/27 03:39:01;;;;;;;;;;;;;;;;;;4980599;28;20020;-73
2023/11/27 03:41:27;;;;;;;;;;;;;;;;;;4985917;28;19964;-72
2023/11/27 03:43:53;;;;;;;;;;;;;;;;;;4979255;28;20470;-72
2023/11/27 03:46:20;;;;;;;;;;;;;;;;;;4982697;28;20375;-73
2023/11/27 03:48:46;;;;;;;;;;;;;;;;;;4978934;28;19917;-73
2023/11/27 03:51:12;;;;;;;;;;;;;;;;;;4982353;28;19921;-72
2023/11/27 03:53:38;;;;;;;;;;;;;;;;;;4977859;28;19917;-73
2023/11/27 03:56:05;;;;;;;;;;;;;;;;;;4985954;28;19921;-72
2023/11/27 03:58:31;;;;;;;;;;;;;;;;;;4983553;28;19922;-73
2023/11/27 04:00:57;;;;;;;;;;;;;;;;;;4980520;28;20915;-72
2023/11/27 04:03:23;;;;;;;;;;;;;;;;;;4978575;28;20452;-72
2023/11/27 04:05:49;;;;;;;;;;;;;;;;;;4983245;28;20478;-73
2023/11/27 04:08:15;;;;;;;;;;;;;;;;;;4983369;28;19973;-73
2023/11/27 04:10:44;;;;;;;;;;;;;;;;;;4979478;28;19925;-73
2023/11/27 04:13:10;;;;;;;;;;;;;;;;;;4983369;28;19932;-73
2023/11/27 04:15:36;;;;;;;;;;;;;;;;;;4981977;28;19926;-72
2023/11/27 04:18:02;;;;;;;;;;;;;;;;;;4980698;28;19917;-72
2023/11/27 04:20:28;;;;;;;;;;;;;;;;;;4981704;28;19940;-72
2023/11/27 04:22:56;;;;;;;;;;;;;;;;;;4979683;28;19925;-72
2023/11/27 04:25:21;;;;;;;;;;;;;;;;;;4982279;28;20341;-72
2023/11/27 04:27:48;;;;;;;;;;;;;;;;;;4978244;28;19995;-73
2023/11/27 04:30:14;;;;;;;;;;;;;;;;;;4984148;28;19921;-72
2023/11/27 04:32:40;;;;;;;;;;;;;;;;;;4980696;28;19924;-72
2023/11/27 04:35:06;;;;;;;;;;;;;;;;;;4978262;28;19921;-72
2023/11/27 04:37:32;;;;;;;;;;;;;;;;;;4983588;28;19983;-72
2023/11/27 04:39:58;;;;;;;;;;;;;;;;;;4980028;28;20295;-72
2023/11/27 04:42:27;;;;;;;;;;;;;;;;;;4981898;28;20553;-72
2023/11/27 04:44:53;;;;;;;;;;;;;;;;;;4980536;28;19925;-73
2023/11/27 04:47:19;;;;;;;;;;;;;;;;;;4980557;28;20502;-73
2023/11/27 04:49:45;;;;;;;;;;;;;;;;;;4982478;28;20032;-72
2023/11/27 04:52:11;;;;;;;;;;;;;;;;;;4988224;28;20010;-73
2023/11/27 04:54:38;;;;;;;;;;;;;;;;;;4982433;28;20467;-72
2023/11/27 04:57:05;;;;;;;;;;;;;;;;;;4988827;28;20474;-73
2023/11/27 04:59:31;;;;;;;;;;;;;;;;;;4985178;28;19917;-73
2023/11/27 05:01:57;;;;;;;;;;;;;;;;;;4982079;28;20161;-73
2023/11/27 05:04:23;;;;;;;;;;;;;;;;;;4983744;28;19913;-72
2023/11/27 05:06:49;;;;;;;;;;;;;;;;;;4978683;28;19996;-72
2023/11/27 05:09:18;;;;;;;;;;;;;;;;;;4983241;28;20633;-74
2023/11/27 05:11:44;;;;;;;;;;;;;;;;;;4979302;28;20035;-73
2023/11/27 05:14:10;;;;;;;;;;;;;;;;;;4981117;28;19921;-73
2023/11/27 05:16:36;;;;;;;;;;;;;;;;;;4982292;28;19921;-73
2023/11/27 05:19:02;;;;;;;;;;;;;;;;;;4982564;28;19917;-73
2023/11/27 05:21:28;;;;;;;;;;;;;;;;;;4983701;28;20483;-73
2023/11/27 05:23:54;;;;;;;;;;;;;;;;;;4996179;28;21106;-73
2023/11/27 05:26:20;;;;;;;;;;;;;;;;;;4982511;28;20672;-72
2023/11/27 05:28:46;;;;;;;;;;;;;;;;;;4974610;28;20832;-73
2023/11/27 05:31:14;;;;;;;;;;;;;;;;;;4979641;28;20503;-73
2023/11/27 05:33:40;;;;;;;;;;;;;;;;;;4976831;28;19917;-74
2023/11/27 05:36:09;;;;;;;;;;;;;;;;;;4983396;28;19936;-74
2023/11/27 05:38:35;;;;;;;;;;;;;;;;;;4983302;28;19961;-72
2023/11/27 05:41:01;;;;;;;;;;;;;;;;;;4979720;28;20007;-73
2023/11/27 05:43:27;;;;;;;;;;;;;;;;;;4981321;28;19918;-72
2023/11/27 05:45:53;;;;;;;;;;;;;;;;;;4981584;28;19928;-73
2023/11/27 05:48:19;;;;;;;;;;;;;;;;;;4987804;28;20402;-74
2023/11/27 05:50:46;;;;;;;;;;;;;;;;;;4975387;28;20481;-73
2023/11/27 05:53:12;;;;;;;;;;;;;;;;;;4980931;28;20561;-73
2023/11/27 05:55:38;;;;;;;;;;;;;;;;;;4973053;28;19921;-72
2023/11/27 05:58:04;;;;;;;;;;;;;;;;;;4981771;28;19974;-73
2023/11/27 06:00:30;;;;;;;;;;;;;;;;;;4982315;28;20774;-72
2023/11/27 06:02:56;;;;;;;;;;;;;;;;;;4977030;28;19932;-74
2023/11/27 06:05:22;;;;;;;;;;;;;;;;;;4976553;28;19921;-72
2023/11/27 06:07:48;;;;;;;;;;;;;;;;;;4978798;28;20047;-74
2023/11/27 06:10:14;;;;;;;;;;;;;;;;;;4980220;28;20768;-74
2023/11/27 06:12:40;;;;;;;;;;;;;;;;;;4978103;28;19929;-72
2023/11/27 06:15:06;;;;;;;;;;;;;;;;;;4982796;28;19926;-72
2023/11/27 06:17:32;;;;;;;;;;;;;;;;;;4982821;28;19922;-72
2023/11/27 06:19:58;;;;;;;;;;;;;;;;;;4975042;28;20368;-72
2023/11/27 06:22:25;;;;;;;;;;;;;;;;;;4978608;28;20026;-72
2023/11/27 06:24:51;;;;;;;;;;;;;;;;;;4979381;28;19917;-73
2023/11/27 06:27:17;;;;;;;;;;;;;;;;;;4983214;28;19924;-72
2023/11/27 06:29:43;;;;;;;;;;;;;;;;;;4980184;28;19925;-73
2023/11/27 06:32:09;;;;;;;;;;;;;;;;;;4985532;28;19968;-72
2023/11/27 06:34:35;;;;;;;;;;;;;;;;;;4985715;28;20387;-73
2023/11/27 06:37:01;;;;;;;;;;;;;;;;;;4980212;28;19936;-72
2023/11/27 06:39:27;;;;;;;;;;;;;;;;;;4979064;28;19918;-74
2023/11/27 06:41:53;;;;;;;;;;;;;;;;;;4978160;28;20304;-74
2023/11/27 06:44:19;;;;;;;;;;;;;;;;;;4981994;28;19917;-73
2023/11/27 06:46:48;;;;;;;;;;;;;;;;;;4977251;28;19918;-74
2023/11/27 06:49:14;;;;;;;;;;;;;;;;;;4979135;28;19913;-74
2023/11/27 06:51:40;;;;;;;;;;;;;;;;;;4978500;28;19924;-74
2023/11/27 06:54:06;;;;;;;;;;;;;;;;;;4985073;28;21269;-73
2023/11/27 06:56:33;;;;;;;;;;;;;;;;;;4982114;28;19921;-74
2023/11/27 06:58:59;;;;;;;;;;;;;;;;;;4981381;28;19925;-72
2023/11/27 07:01:28;;;;;;;;;;;;;;;;;;4981491;28;19961;-73
2023/11/27 07:03:54;;;;;;;;;;;;;;;;;;4982178;28;19913;-73
2023/11/27 07:06:20;;;;;;;;;;;;;;;;;;4981112;28;19917;-73
2023/11/27 07:08:46;;;;;;;;;;;;;;;;;;4975254;28;20036;-73
2023/11/27 07:11:12;;;;;;;;;;;;;;;;;;4982075;28;19914;-74
2023/11/27 07:13:38;;;;;;;;;;;;;;;;;;4980703;28;20415;-72
2023/11/27 07:16:04;;;;;;;;;;;;;;;;;;4987055;28;20027;-74
2023/11/27 07:18:29;;;;;;;;;;;;;;;;;;4984603;28;19917;-73
2023/11/27 07:20:57;;;;;;;;;;;;;;;;;;4979432;28;19925;-74
2023/11/27 07:23:23;;;;;;;;;;;;;;;;;;4983370;28;19925;-73
2023/11/27 07:25:49;;;;;;;;;;;;;;;;;;4981520;28;19921;-73
2023/11/27 07:28:16;;;;;;;;;;;;;;;;;;4990549;28;21997;-72
2023/11/27 07:30:43;;;;;;;;;;;;;;;;;;4979475;28;20055;-73
2023/11/27 07:33:09;;;;;;;;;;;;;;;;;;4985736;28;19928;-72
2023/11/27 07:35:35;;;;;;;;;;;;;;;;;;4985566;28;19921;-72
2023/11/27 07:38:01;;;;;;;;;;;;;;;;;;4981370;28;19924;-73
2023/11/27 07:40:27;;;;;;;;;;;;;;;;;;4982764;28;19921;-72
2023/11/27 07:42:53;;;;;;;;;;;;;;;;;;4982155;28;19914;-73
2023/11/27 07:45:19;;;;;;;;;;;;;;;;;;4979230;28;19921;-73
2023/11/27 07:47:45;;;;;;;;;;;;;;;;;;4980823;28;20467;-72
2023/11/27 07:50:11;;;;;;;;;;;;;;;;;;4984290;28;20003;-72
2023/11/27 07:52:37;;;;;;;;;;;;;;;;;;4983389;28;19944;-72
2023/11/27 07:55:04;;;;;;;;;;;;;;;;;;4983843;28;20389;-72
2023/11/27 07:57:30;;;;;;;;;;;;;;;;;;4982124;28;19979;-73
2023/11/27 07:59:56;;;;;;;;;;;;;;;;;;4979088;28;19925;-73
2023/11/27 08:02:22;;;;;;;;;;;;;;;;;;4986047;28;20151;-72
2023/11/27 08:04:48;;;;;;;;;;;;;;;;;;4982199;28;20568;-73
2023/11/27 08:07:14;;;;;;;;;;;;;;;;;;4985604;28;19918;-73
2023/11/27 08:09:40;;;;;;;;;;;;;;;;;;4979907;28;20051;-72
2023/11/27 08:12:07;;;;;;;;;;;;;;;;;;4979259;28;19956;-74
2023/11/27 08:14:33;;;;;;;;;;;;;;;;;;4984150;28;19929;-74
2023/11/27 08:16:59;;;;;;;;;;;;;;;;;;4978856;28;20287;-74
2023/11/27 08:19:25;;;;;;;;;;;;;;;;;;4982339;28;20616;-73
2023/11/27 08:21:51;;;;;;;;;;;;;;;;;;4982102;28;20142;-75
2023/11/27 08:24:17;;;;;;;;;;;;;;;;;;4981284;28;20019;-72
2023/11/27 08:26:49;;;;;;;;;;;;;;;;;;4978610;28;20649;-73
2023/11/27 08:29:15;;;;;;;;;;;;;;;;;;4981657;28;19917;-72
2023/11/27 08:31:42;;;;;;;;;;;;;;;;;;4980612;28;19925;-73
2023/11/27 08:34:08;;;;;;;;;;;;;;;;;;4983469;28;19917;-72
2023/11/27 08:36:34;;;;;;;;;;;;;;;;;;4998452;28;20459;-74
2023/11/27 08:39:00;;;;;;;;;;;;;;;;;;4975464;28;19925;-74
2023/11/27 08:41:26;;;;;;;;;;;;;;;;;;4984179;28;19926;-74
2023/11/27 08:43:52;;;;;;;;;;;;;;;;;;4985257;28;19922;-74
2023/11/27 08:46:19;;;;;;;;;;;;;;;;;;4983222;28;19979;-74
2023/11/27 08:48:45;;;;;;;;;;;;;;;;;;4976145;28;19982;-74
2023/11/27 08:51:11;;;;;;;;;;;;;;;;;;4982752;28;19944;-74
2023/11/27 08:53:39;;;;;;;;;;;;;;;;;;4985883;28;19925;-74
2023/11/27 08:56:06;;;;;;;;;;;;;;;;;;4979427;28;19995;-74
2023/11/27 08:58:33;;;;;;;;;;;;;;;;;;4981610;28;20164;-75
2023/11/27 09:01:03;;;;;;;;;;;;;;;;;;4980210;28;20791;-75
2023/11/27 09:03:30;;;;;;;;;;;;;;;;;;4985018;28;20466;-74
2023/11/27 09:05:57;;;;;;;;;;;;;;;;;;4979926;28;20008;-74
2023/11/27 09:08:23;;;;;;;;;;;;;;;;;;4984245;28;19924;-74
2023/11/27 09:10:49;;;;;;;;;;;;;;;;;;4982908;28;19921;-73
2023/11/27 09:13:15;;;;;;;;;;;;;;;;;;4914338;28;108005;-73
2023/11/27 09:15:55;;;;;;;;;;;;;;;;;;4907366;28;89772;-73
2023/11/27 09:18:21;;;;;;;;;;;;;;;;;;5017174;28;20474;-75
2023/11/27 09:20:47;;;;;;;;;;;;;;;;;;4995676;28;19964;-73
2023/11/27 09:23:13;;;;;;;;;;;;;;;;;;4997317;28;19932;-74
2023/11/27 09:25:39;;;;;;;;;;;;;;;;;;5008070;28;19952;-74
2023/11/27 09:28:05;;;;;;;;;;;;;;;;;;4985103;28;19944;-73
2023/11/27 09:30:31;;;;;;;;;;;;;;;;;;4997067;28;20454;-74
2023/11/27 09:32:57;;;;;;;;;;;;;;;;;;4995579;28;19929;-74
2023/11/27 09:35:23;;;;;;;;;;;;;;;;;;4994455;28;19930;-73
2023/11/27 09:37:49;;;;;;;;;;;;;;;;;;5005495;28;19917;-73
2023/11/27 09:40:16;;;;;;;;;;;;;;;;;;4973868;28;20218;-73
2023/11/27 09:42:41;;;;;;;;;;;;;;;;;;4993112;28;20536;-74
2023/11/27 09:45:08;;;;;;;;;;;;;;;;;;5003047;28;19917;-73
2023/11/27 09:47:34;;;;;;;;;;;;;;;;;;5001323;28;20808;-73
2023/11/27 09:50:00;;;;;;;;;;;;;;;;;;5014237;28;19921;-75
2023/11/27 09:52:29;;;;;;;;;;;;;;;;;;5001693;28;20006;-73
2023/11/27 09:54:55;;;;;;;;;;;;;;;;;;4998043;28;19948;-74
2023/11/27 09:57:22;;;;;;;;;;;;;;;;;;5001518;28;20596;-74
2023/11/27 09:59:48;;;;;;;;;;;;;;;;;;4999534;28;19925;-74
2023/11/27 10:02:14;;;;;;;;;;;;;;;;;;5005466;28;19976;-74
2023/11/27 10:04:42;;;;;;;;;;;;;;;;;;5000329;28;19926;-74
2023/11/27 10:07:08;;;;;;;;;;;;;;;;;;5002387;28;19918;-74
2023/11/27 10:09:34;;;;;;;;;;;;;;;;;;5003164;28;19917;-75
2023/11/27 10:12:00;;;;;;;;;;;;;;;;;;4996969;28;20655;-74
2023/11/27 10:14:29;;;;;;;;;;;;;;;;;;5000604;28;19925;-74
2023/11/27 10:16:58;;;;;;;;;;;;;;;;;;4974393;28;19952;-73
2023/11/27 10:19:25;;;;;;;;;;;;;;;;;;4961520;28;19926;-73
2023/11/27 10:21:51;;;;;;;;;;;;;;;;;;4959685;28;19917;-72
2023/11/27 10:24:17;;;;;;;;;;;;;;;;;;4959611;28;19991;-73
2023/11/27 10:26:43;;;;;;;;;;;;;;;;;;4949669;28;19921;-73
2023/11/27 10:29:09;;;;;;;;;;;;;;;;;;4947248;28;19917;-73
2023/11/27 10:31:36;;;;;;;;;;;;;;;;;;4961309;28;19953;-73
2023/11/27 10:34:02;;;;;;;;;;;;;;;;;;4961593;28;19924;-74
2023/11/27 10:36:28;;;;;;;;;;;;;;;;;;4982210;28;19925;-74
2023/11/27 10:38:54;;;;;;;;;;;;;;;;;;4985034;28;19917;-73
2023/11/27 10:41:20;;;;;;;;;;;;;;;;;;4988857;28;20024;-73
2023/11/27 10:43:46;;;;;;;;;;;;;;;;;;4986716;28;19978;-73
2023/11/27 10:46:13;;;;;;;;;;;;;;;;;;4988109;28;20063;-73
2023/11/27 10:48:39;;;;;;;;;;;;;;;;;;4986653;28;19925;-73
2023/11/27 10:51:06;;;;;;;;;;;;;;;;;;4986666;28;19918;-73
2023/11/27 10:53:34;;;;;;;;;;;;;;;;;;4997451;28;20025;-75
2023/11/27 10:56:01;;;;;;;;;;;;;;;;;;4988317;28;19951;-73
2023/11/27 10:58:27;;;;;;;;;;;;;;;;;;4990491;28;19960;-73
2023/11/27 11:00:57;;;;;;;;;;;;;;;;;;4986403;28;19924;-74
2023/11/27 11:03:24;;;;;;;;;;;;;;;;;;4989388;28;20926;-73
2023/11/27 11:05:50;;;;;;;;;;;;;;;;;;4986246;28;19960;-74
2023/11/27 11:08:16;;;;;;;;;;;;;;;;;;4987805;28;20012;-73
2023/11/27 11:10:42;;;;;;;;;;;;;;;;;;4949000;28;20582;-74
2023/11/27 11:13:11;;;;;;;;;;;;;;;;;;4943845;28;20421;-73
2023/11/27 11:15:39;;;;;;;;;;;;;;;;;;4943469;28;19926;-75
2023/11/27 11:18:10;;;;;;;;;;;;;;;;;;4947833;28;20670;-73
2023/11/27 11:20:39;;;;;;;;;;;;;;;;;;4948746;28;19918;-73
2023/11/27 11:23:06;;;;;;;;;;;;;;;;;;4948711;28;20191;-73
2023/11/27 11:25:32;;;;;;;;;;;;;;;;;;4951062;28;19925;-74
2023/11/27 11:27:58;;;;;;;;;;;;;;;;;;4943738;28;19928;-73
2023/11/27 11:30:25;;;;;;;;;;;;;;;;;;4947813;28;19921;-73
2023/11/27 11:32:52;;;;;;;;;;;;;;;;;;4950380;28;19925;-74
2023/11/27 11:35:18;;;;;;;;;;;;;;;;;;4952129;28;19933;-73
2023/11/27 11:37:44;;;;;;;;;;;;;;;;;;4961409;28;19921;-73
2023/11/27 11:40:10;;;;;;;;;;;;;;;;;;4966146;28;19964;-73
2023/11/27 11:42:36;;;;;;;;;;;;;;;;;;4964440;28;20564;-74
2023/11/27 11:45:02;;;;;;;;;;;;;;;;;;4965162;28;19917;-73
2023/11/27 11:47:28;;;;;;;;;;;;;;;;;;4980832;28;20039;-73
2023/11/27 11:49:54;;;;;;;;;;;;;;;;;;4982375;28;21305;-74
2023/11/27 11:52:20;;;;;;;;;;;;;;;;;;4986004;28;19914;-73
2023/11/27 11:54:47;;;;;;;;;;;;;;;;;;4982557;28;20411;-73
2023/11/27 11:57:13;;;;;;;;;;;;;;;;;;4987701;28;19925;-73
2023/11/27 11:59:39;;;;;;;;;;;;;;;;;;4984424;28;20513;-74
2023/11/27 12:02:10;;;;;;;;;;;;;;;;;;4985736;28;19917;-74
2023/11/27 12:04:36;;;;;;;;;;;;;;;;;;4985998;28;19930;-74
2023/11/27 12:07:02;;;;;;;;;;;;;;;;;;4986193;28;19952;-73
2023/11/27 12:09:28;;;;;;;;;;;;;;;;;;4974538;28;20367;-74
2023/11/27 12:11:58;;;;;;;;;;;;;;;;;;4965818;28;19928;-74
2023/11/27 12:14:26;;;;;;;;;;;;;;;;;;4967503;28;20335;-73
2023/11/27 12:16:53;;;;;;;;;;;;;;;;;;4964143;28;20419;-73
2023/11/27 12:19:21;;;;;;;;;;;;;;;;;;4961685;28;19918;-73
2023/11/27 12:21:47;;;;;;;;;;;;;;;;;;4962917;28;19983;-73
2023/11/27 12:24:14;;;;;;;;;;;;;;;;;;4966827;28;19914;-73
2023/11/27 12:26:40;;;;;;;;;;;;;;;;;;4962670;28;19917;-73
2023/11/27 12:29:05;;;;;;;;;;;;;;;;;;4982077;28;20196;-73
2023/11/27 12:31:31;;;;;;;;;;;;;;;;;;4967484;28;19975;-72
2023/11/27 12:33:57;;;;;;;;;;;;;;;;;;4961864;28;19960;-72
2023/11/27 12:36:23;;;;;;;;;;;;;;;;;;4965837;28;19984;-72
2023/11/27 12:38:52;;;;;;;;;;;;;;;;;;4963993;28;19928;-72
2023/11/27 12:41:18;;;;;;;;;;;;;;;;;;4967502;28;20294;-73
2023/11/27 12:43:44;;;;;;;;;;;;;;;;;;4964813;28;19921;-73
2023/11/27 12:46:13;;;;;;;;;;;;;;;;;;4971408;28;20364;-75
2023/11/27 12:48:39;;;;;;;;;;;;;;;;;;4981040;28;19918;-76
2023/11/27 12:51:12;;;;;;;;;;;;;;;;;;4985463;28;19928;-72
2023/11/27 12:53:37;;;;;;;;;;;;;;;;;;4981464;28;19921;-73
2023/11/27 12:56:03;;;;;;;;;;;;;;;;;;4985487;28;20265;-74
2023/11/27 12:58:29;;;;;;;;;;;;;;;;;;4984788;28;20369;-73
2023/11/27 13:00:57;;;;;;;;;;;;;;;;;;4983780;28;19917;-75
2023/11/27 13:03:25;;;;;;;;;;;;;;;;;;4983995;28;20411;-75
2023/11/27 13:05:54;;;;;;;;;;;;;;;;;;4979595;28;19917;-73
2023/11/27 13:08:23;;;;;;;;;;;;;;;;;;4984191;28;19925;-73
2023/11/27 13:10:49;;;;;;;;;;;;;;;;;;4980844;28;20259;-74
2023/11/27 13:13:20;;;;;;;;;;;;;;;;;;4984268;28;19917;-73
2023/11/27 13:15:46;;;;;;;;;;;;;;;;;;4979910;28;19948;-73
2023/11/27 13:18:15;;;;;;;;;;;;;;;;;;4983588;28;19922;-74
2023/11/27 13:20:41;;;;;;;;;;;;;;;;;;4980441;28;20219;-74
2023/11/27 13:23:07;;;;;;;;;;;;;;;;;;4985594;28;19918;-73
2023/11/27 13:25:36;;;;;;;;;;;;;;;;;;4986441;28;20017;-73
2023/11/27 13:28:02;;;;;;;;;;;;;;;;;;4983721;28;20008;-74
2023/11/27 13:30:29;;;;;;;;;;;;;;;;;;4985627;28;20048;-74
2023/11/27 13:32:58;;;;;;;;;;;;;;;;;;4979523;28;19917;-73
2023/11/27 13:35:32;;;;;;;;;;;;;;;;;;4984285;28;20027;-75
2023/11/27 13:38:00;;;;;;;;;;;;;;;;;;4981681;28;20109;-75
2023/11/27 13:40:28;;;;;;;;;;;;;;;;;;4986931;28;19929;-75
2023/11/27 13:42:53;;;;;;;;;;;;;;;;;;4982239;28;20030;-74
2023/11/27 13:45:25;;;;;;;;;;;;;;;;;;4985084;28;20044;-73
2023/11/27 13:47:53;;;;;;;;;;;;;;;;;;4980498;28;19921;-73
2023/11/27 13:50:19;;;;;;;;;;;;;;;;;;4986928;28;19917;-73
2023/11/27 13:52:45;;;;;;;;;;;;;;;;;;4983670;28;19991;-74
2023/11/27 13:55:11;;;;;;;;;;;;;;;;;;4985042;28;19983;-74
2023/11/27 13:57:37;;;;;;;;;;;;;;;;;;4985436;28;19945;-74
2023/11/27 14:00:19;;;;;;;;;;;;;;;;;;4983445;28;19913;-74
2023/11/27 14:02:45;;;;;;;;;;;;;;;;;;4986047;28;19925;-74
2023/11/27 14:05:20;;;;;;;;;;;;;;;;;;4998486;28;19921;-74
2023/11/27 14:07:47;;;;;;;;;;;;;;;;;;4985345;28;19918;-73
2023/11/27 14:10:32;;;;;;;;;;;;;;;;;;4987994;28;19925;-74
2023/11/27 14:13:08;;;;;;;;;;;;;;;;;;4983230;28;20027;-74
2023/11/27 14:15:45;;;;;;;;;;;;;;;;;;4980890;28;20285;-75
2023/11/27 14:20:52;;;;;;;;;;;;;;;;;;4978922;28;20016;-76
2023/11/27 14:31:13;;;;;;;;;;;;;;;;;;4978747;28;20331;-74
2023/11/27 14:33:39;;;;;;;;;;;;;;;;;;4977432;28;19925;-73
2023/11/27 14:36:05;;;;;;;;;;;;;;;;;;4977896;28;20492;-74
2023/11/27 14:38:32;;;;;;;;;;;;;;;;;;4983152;28;19924;-74
2023/11/27 14:40:58;;;;;;;;;;;;;;;;;;4975888;28;19945;-75
2023/11/27 14:43:29;;;;;;;;;;;;;;;;;;4981815;28;19948;-74
2023/11/27 14:45:55;;;;;;;;;;;;;;;;;;4980277;28;20344;-73
2023/11/27 14:48:23;;;;;;;;;;;;;;;;;;4982456;28;19929;-74
2023/11/27 14:50:51;;;;;;;;;;;;;;;;;;4979855;28;20016;-73
2023/11/27 14:53:19;;;;;;;;;;;;;;;;;;4983525;28;20078;-74
2023/11/27 14:55:45;;;;;;;;;;;;;;;;;;4977150;28;19925;-73
2023/11/27 14:58:14;;;;;;;;;;;;;;;;;;4983354;28;19928;-73
2023/11/27 15:00:43;;;;;;;;;;;;;;;;;;4981156;28;19934;-74
2023/11/27 15:03:18;;;;;;;;;;;;;;;;;;4985604;28;19925;-73
2023/11/27 15:05:44;;;;;;;;;;;;;;;;;;4984053;28;19921;-73
2023/11/27 15:08:11;;;;;;;;;;;;;;;;;;4982946;28;19917;-73
2023/11/27 15:10:37;;;;;;;;;;;;;;;;;;4980539;28;20357;-73
2023/11/27 15:13:05;;;;;;;;;;;;;;;;;;4982148;28;19960;-73
2023/11/27 15:15:31;;;;;;;;;;;;;;;;;;4979655;28;19925;-73
2023/11/27 15:17:57;;;;;;;;;;;;;;;;;;4977592;28;21392;-75
2023/11/27 15:20:26;;;;;;;;;;;;;;;;;;4980698;28;19921;-75
2023/11/27 15:22:56;;;;;;;;;;;;;;;;;;4980248;28;19918;-73
2023/11/27 15:25:22;;;;;;;;;;;;;;;;;;4977458;28;19917;-74
2023/11/27 15:27:48;;;;;;;;;;;;;;;;;;4975540;28;19917;-74
2023/11/27 15:30:17;;;;;;;;;;;;;;;;;;4978392;28;19917;-75
2023/11/27 15:32:43;;;;;;;;;;;;;;;;;;4979248;28;20007;-74
2023/11/27 15:35:11;;;;;;;;;;;;;;;;;;4979391;28;20019;-74
2023/11/27 15:37:37;;;;;;;;;;;;;;;;;;4979690;28;19917;-74
2023/11/27 15:40:03;;;;;;;;;;;;;;;;;;4978033;28;20351;-74
2023/11/27 15:42:29;;;;;;;;;;;;;;;;;;4980811;28;20571;-75
2023/11/27 15:44:55;;;;;;;;;;;;;;;;;;4980968;28;20001;-75
2023/11/27 15:47:22;;;;;;;;;;;;;;;;;;4980001;28;19925;-75
2023/11/27 15:49:48;;;;;;;;;;;;;;;;;;4992799;28;19929;-75
2023/11/27 15:52:14;;;;;;;;;;;;;;;;;;4979619;28;19917;-74
2023/11/27 15:54:40;;;;;;;;;;;;;;;;;;4977488;28;19929;-73
2023/11/27 15:57:08;;;;;;;;;;;;;;;;;;4978709;28;20016;-74
2023/11/27 15:59:34;;;;;;;;;;;;;;;;;;4980376;28;20646;-74
2023/11/27 16:02:00;;;;;;;;;;;;;;;;;;4975926;28;20841;-73
2023/11/27 16:04:26;;;;;;;;;;;;;;;;;;4979320;28;20012;-74
2023/11/27 16:06:52;;;;;;;;;;;;;;;;;;4976172;28;20075;-72
2023/11/27 16:09:20;;;;;;;;;;;;;;;;;;4979278;28;19924;-73
2023/11/27 16:11:47;;;;;;;;;;;;;;;;;;4994549;28;19932;-73
2023/11/27 16:14:14;;;;;;;;;;;;;;;;;;4975700;28;20052;-72
2023/11/27 16:16:44;;;;;;;;;;;;;;;;;;4981008;28;19963;-74
2023/11/27 16:19:10;;;;;;;;;;;;;;;;;;4978187;28;20032;-74
2023/11/27 16:21:36;;;;;;;;;;;;;;;;;;4981998;28;19947;-75
2023/11/27 16:24:03;;;;;;;;;;;;;;;;;;4977811;28;19918;-74
2023/11/27 16:26:29;;;;;;;;;;;;;;;;;;4976231;28;19914;-73
2023/11/27 16:28:55;;;;;;;;;;;;;;;;;;4976366;28;20437;-75
2023/11/27 16:31:21;;;;;;;;;;;;;;;;;;4978082;28;19961;-75
2023/11/27 16:33:47;;;;;;;;;;;;;;;;;;4975021;28;19979;-74
2023/11/27 16:36:13;;;;;;;;;;;;;;;;;;4980310;28;19917;-74
2023/11/27 16:38:39;;;;;;;;;;;;;;;;;;4972756;28;19918;-74
2023/11/27 16:41:06;;;;;;;;;;;;;;;;;;4978282;28;19921;-74
2023/11/27 16:43:32;;;;;;;;;;;;;;;;;;4976667;28;19917;-74
2023/11/27 16:45:58;;;;;;;;;;;;;;;;;;4976851;28;20047;-77
2023/11/27 16:48:28;;;;;;;;;;;;;;;;;;4976622;28;19921;-75
2023/11/27 16:50:54;;;;;;;;;;;;;;;;;;4985689;28;20013;-74
2023/11/27 16:53:25;;;;;;;;;;;;;;;;;;4979332;28;19959;-75